Time;durP1;ratioP1;P1;durP2;ratioP2;P2;SDS_P1;SDS_P2;PMS_P1;PMS_P2;Temp;Humidity;BMP_temperature;BMP_pressure;BME280_temperature;BME280_humidity;BME280_pressure;Samples;Min_cycle;Max_cycle;Signal;HPM_P1;HPM_P2
2022/04/30 00:01:20;;;;;;;34.43;19.03;;;6.50;99.90;;;;;;10551521;28;20264;-81
2022/04/30 00:06:42;;;;;;;31.13;16.97;;;6.40;99.90;;;;;;10523516;28;20213;-79
2022/04/30 00:12:04;;;;;;;34.23;15.57;;;6.40;99.90;;;;;;10533774;28;20263;-79
2022/04/30 00:17:26;;;;;;;25.13;13.97;;;6.30;99.90;;;;;;10564406;28;20272;-79
2022/04/30 00:22:47;;;;;;;23.33;14.67;;;6.20;99.90;;;;;;10564363;28;20198;-80
2022/04/30 00:28:08;;;;;;;29.27;16.03;;;6.20;99.90;;;;;;10565071;28;20286;-80
2022/04/30 00:33:30;;;;;;;29.40;15.03;;;6.20;99.90;;;;;;10564001;28;20188;-79
2022/04/30 00:38:51;;;;;;;29.63;16.43;;;6.20;99.90;;;;;;10564819;28;20287;-81
2022/04/30 00:44:19;;;;;;;33.33;17.47;;;6.10;99.90;;;;;;10563763;28;20369;-79
2022/04/30 00:49:41;;;;;;;32.00;16.67;;;6.00;99.90;;;;;;10563409;28;20204;-81
2022/04/30 00:55:03;;;;;;;30.47;15.87;;;5.90;99.90;;;;;;10564303;28;20347;-78
2022/04/30 01:00:26;;;;;;;29.90;14.70;;;5.80;99.90;;;;;;10557952;28;20274;-80
2022/04/30 01:06:00;;;;;;;28.43;15.23;;;5.70;99.90;;;;;;10506657;28;20268;-79
2022/04/30 01:11:22;;;;;;;33.20;14.60;;;5.60;99.90;;;;;;10524467;28;20254;-80
2022/04/30 01:16:44;;;;;;;24.07;14.10;;;5.50;99.90;;;;;;10563264;28;20523;-79
2022/04/30 01:22:29;;;;;;;25.27;13.87;;;5.40;99.90;;;;;;10562174;28;20219;-79
2022/04/30 01:27:52;;;;;;;21.47;12.53;;;5.30;99.90;;;;;;10561580;28;20259;-80
2022/04/30 01:38:59;;;;;;;28.13;14.03;;;5.20;99.90;;;;;;10546962;28;20231;-80
2022/04/30 01:44:21;;;;;;;20.73;12.37;;;5.20;99.90;;;;;;10546888;28;20485;-81
2022/04/30 01:49:42;;;;;;;23.27;10.77;;;5.20;99.90;;;;;;10546954;28;20431;-80
2022/04/30 01:55:04;;;;;;;19.70;11.07;;;5.20;99.90;;;;;;10562192;28;20196;-81
2022/04/30 02:00:26;;;;;;;19.93;10.33;;;5.20;99.90;;;;;;10555703;28;20521;-80
2022/04/30 02:05:47;;;;;;;17.40;10.10;;;5.10;99.90;;;;;;10520074;28;20191;-80
2022/04/30 02:11:08;;;;;;;26.10;13.27;;;5.10;99.90;;;;;;10520833;28;20273;-81
2022/04/30 02:16:31;;;;;;;20.47;12.23;;;4.90;99.90;;;;;;10561665;28;20234;-79
2022/04/30 02:21:53;;;;;;;18.13;11.23;;;4.80;99.90;;;;;;10560510;28;20217;-78
2022/04/30 02:27:14;;;;;;;19.83;10.87;;;4.90;99.90;;;;;;10559829;28;20226;-80
2022/04/30 02:33:09;;;;;;;19.60;11.53;;;5.00;99.90;;;;;;10561361;28;20186;-79
2022/04/30 02:38:30;;;;;;;25.50;11.60;;;4.90;99.90;;;;;;10546034;28;20213;-81
2022/04/30 02:43:52;;;;;;;21.93;13.00;;;5.00;99.90;;;;;;10560087;28;20193;-80
2022/04/30 02:49:13;;;;;;;31.53;14.23;;;5.00;99.90;;;;;;10569211;28;20374;-80
2022/04/30 02:54:34;;;;;;;24.17;13.27;;;4.80;99.90;;;;;;10567946;28;20246;-80
2022/04/30 02:59:55;;;;;;;23.93;13.57;;;4.80;99.90;;;;;;10566868;28;20286;-81
2022/04/30 03:05:53;;;;;;;26.43;14.67;;;4.70;99.90;;;;;;10525460;28;20203;-79
2022/04/30 03:11:14;;;;;;;24.87;14.10;;;4.80;99.90;;;;;;10527794;28;20208;-80
2022/04/30 03:22:36;;;;;;;19.03;11.63;;;;;;;;;;10480882;28;20296;-80
2022/04/30 03:27:58;;;;;;;23.87;12.10;;;4.40;99.90;;;;;;10480365;28;20562;-79
2022/04/30 03:33:19;;;;;;;24.33;13.03;;;4.10;1.00;;;;;;10480571;28;20205;-80
2022/04/30 03:38:40;;;;;;;24.03;13.57;;;4.10;1.00;;;;;;10480120;28;20225;-79
2022/04/30 03:44:02;;;;;;;24.93;13.67;;;4.00;1.00;;;;;;10449344;28;20411;-80
2022/04/30 03:49:23;;;;;;;23.23;12.57;;;4.00;1.00;;;;;;10465570;28;20200;-79
2022/04/30 03:54:44;;;;;;;24.70;13.17;;;4.10;1.00;;;;;;10566193;28;20196;-80
2022/04/30 04:00:07;;;;;;;24.77;10.83;;;4.20;1.00;;;;;;10563503;28;20230;-79
2022/04/30 04:05:33;;;;;;;19.53;9.70;;;4.40;1.00;;;;;;10524458;28;20193;-80
2022/04/30 04:10:54;;;;;;;24.53;10.20;;;4.70;1.00;;;;;;10508563;28;20200;-78
2022/04/30 04:21:56;;;;;;;33.23;19.70;;;5.10;1.00;;;;;;10567353;28;20221;-79
2022/04/30 04:27:18;;;;;;;28.50;16.33;;;5.40;1.00;;;;;;10565292;28;20517;-80
2022/04/30 04:32:40;;;;;;;20.87;12.93;;;5.50;99.90;;;;;;10564146;28;20406;-81
2022/04/30 04:38:01;;;;;;;18.00;10.67;;;5.60;99.90;;;;;;10563390;28;20487;-79
2022/04/30 04:43:22;;;;;;;27.33;12.27;;;5.80;99.90;;;;;;10563460;28;20199;-81
2022/04/30 04:48:44;;;;;;;40.70;15.87;;;6.00;1.00;;;;;;10563437;28;20204;-77
2022/04/30 04:54:05;;;;;;;23.30;10.83;;;6.20;1.00;;;;;;10564158;28;20187;-79
2022/04/30 04:59:27;;;;;;;17.53;9.70;;;6.40;1.00;;;;;;10563207;28;20288;-78
2022/04/30 05:04:48;;;;;;;18.00;8.37;;;6.60;1.00;;;;;;10480362;28;20211;-79
2022/04/30 05:10:09;;;;;;;13.37;7.20;;;6.90;1.00;;;;;;10493678;28;20202;-80
2022/04/30 05:15:31;;;;;;;17.17;8.30;;;7.30;1.00;;;;;;10548135;28;20211;-79
2022/04/30 05:20:53;;;;;;;14.63;8.40;;;7.70;1.00;;;;;;10563018;28;20219;-80
2022/04/30 05:26:14;;;;;;;7.73;4.13;;;7.90;1.00;;;;;;10562991;28;20236;-80
2022/04/30 05:31:35;;;;;;;12.23;4.30;;;8.10;89.50;;;;;;10561786;28;20266;-79
2022/04/30 05:36:57;;;;;;;10.93;3.73;;;8.20;1.00;;;;;;10562735;28;20346;-78
2022/04/30 05:42:18;;;;;;;6.43;2.97;;;8.50;1.00;;;;;;10562485;28;20231;-80
2022/04/30 05:47:40;;;;;;;10.37;4.80;;;8.90;99.90;;;;;;10547106;28;20275;-81
2022/04/30 05:53:04;;;;;;;8.50;2.50;;;9.20;1.00;;;;;;10561097;28;20234;-79
2022/04/30 05:58:26;;;;;;;6.80;2.33;;;9.30;99.90;;;;;;10560800;28;20220;-78
2022/04/30 06:03:47;;;;;;;6.53;2.40;;;9.50;1.00;;;;;;10527615;28;20224;-78
2022/04/30 06:09:08;;;;;;;4.13;2.73;;;9.80;5.90;;;;;;10498710;28;20278;-80
2022/04/30 06:14:30;;;;;;;2.97;1.97;;;10.30;1.00;;;;;;10550362;28;20481;-78
2022/04/30 06:19:51;;;;;;;3.77;2.30;;;10.60;99.90;;;;;;10562164;28;20297;-79
2022/04/30 06:25:12;;;;;;;4.57;2.40;;;10.50;98.00;;;;;;10555036;28;20293;-78
2022/04/30 06:30:33;;;;;;;6.07;2.90;;;10.20;72.20;;;;;;10569098;28;20211;-81
2022/04/30 06:35:54;;;;;;;6.77;2.93;;;9.90;99.90;;;;;;10568563;28;20239;-80
2022/04/30 06:41:15;;;;;;;6.67;2.97;;;9.90;99.90;;;;;;10568446;28;20304;-79
2022/04/30 06:46:37;;;;;;;4.87;2.97;;;9.90;1.00;;;;;;10568207;28;20197;-79
2022/04/30 06:51:58;;;;;;;8.77;5.43;;;10.20;1.00;;;;;;10568158;28;20206;-80
2022/04/30 06:57:21;;;;;;;8.50;5.78;;;10.70;99.90;;;;;;10568793;28;20214;-77
2022/04/30 07:02:43;;;;;;;5.00;3.08;;;11.50;1.00;;;;;;10527851;28;20231;-77
2022/04/30 07:08:04;;;;;;;4.30;1.83;;;12.00;94.20;;;;;;10525314;28;20269;-80
2022/04/30 07:13:25;;;;;;;8.02;2.92;;;11.80;1.00;;;;;;10552132;28;20200;-80
2022/04/30 07:18:47;;;;;;;3.05;2.50;;;12.20;1.00;;;;;;10566879;28;20220;-80
2022/04/30 07:24:08;;;;;;;5.65;3.38;;;12.80;1.00;;;;;;10566628;28;20227;-77
2022/04/30 07:29:30;;;;;;;5.13;2.35;;;13.10;1.00;;;;;;10566665;28;20207;-79
2022/04/30 07:34:51;;;;;;;6.15;2.67;;;14.30;1.00;;;;;;10566241;28;20205;-79
2022/04/30 07:40:12;;;;;;;5.65;3.20;;;15.50;99.90;;;;;;10551868;28;20446;-79
2022/04/30 07:45:35;;;;;;;3.83;3.08;;;16.40;1.00;;;;;;10551542;28;20555;-78
2022/04/30 07:50:57;;;;;;;4.18;2.92;;;17.10;1.00;;;;;;10566673;28;20548;-78
2022/04/30 07:56:19;;;;;;;4.05;2.63;;;17.30;1.00;;;;;;10566735;28;20197;-77
2022/04/30 08:01:40;;;;;;;5.88;2.88;;;17.20;99.90;;;;;;10549691;28;20231;-77
2022/04/30 08:07:01;;;;;;;2.75;2.00;;;17.70;99.90;;;;;;10523201;28;20530;-79
2022/04/30 08:12:22;;;;;;;9.95;4.70;;;17.80;99.90;;;;;;10536477;28;20206;-78
2022/04/30 08:17:44;;;;;;;3.10;2.25;;;18.50;95.60;;;;;;10565513;28;20472;-80
2022/04/30 08:23:06;;;;;;;2.97;1.80;;;18.70;1.00;;;;;;10565304;28;20583;-78
2022/04/30 08:28:28;;;;;;;8.27;3.70;;;18.80;1.00;;;;;;10565086;28;20191;-81
2022/04/30 08:33:49;;;;;;;4.00;2.50;;;19.30;1.00;;;;;;10564023;28;20201;-80
2022/04/30 08:39:11;;;;;;;38.33;21.63;;;19.90;1.00;;;;;;10564945;28;20210;-80
2022/04/30 08:44:36;;;;;;;5.00;3.05;;;19.40;1.00;;;;;;10563498;28;20409;-77
2022/04/30 08:49:58;;;;;;;4.15;2.30;;;19.60;1.00;;;;;;10563744;28;20186;-79
2022/04/30 08:55:19;;;;;;;6.55;2.17;;;19.80;1.00;;;;;;10564176;28;20194;-82
2022/04/30 09:00:43;;;;;;;9.93;2.45;;;19.80;1.00;;;;;;10554632;28;20249;-81
2022/04/30 09:06:06;;;;;;;3.65;2.30;;;19.30;1.00;;;;;;10521109;28;20191;-79
2022/04/30 09:11:28;;;;;;;2.80;1.85;;;19.00;1.00;;;;;;10526197;28;20413;-80
2022/04/30 09:16:59;;;;;;;3.20;2.13;;;20.10;1.00;;;;;;10562168;28;20221;-79
2022/04/30 09:22:33;;;;;;;3.92;2.20;;;19.90;1.00;;;;;;10563129;28;20222;-80
2022/04/30 09:27:53;;;;;;;7.80;3.35;;;19.10;1.00;;;;;;10561467;28;20225;-79
2022/04/30 09:33:18;;;;;;;9.48;3.67;;;18.20;1.00;;;;;;10562593;28;20191;-81
2022/04/30 09:38:40;;;;;;;6.78;2.55;;;17.40;1.00;;;;;;10562488;28;20190;-81
2022/04/30 09:44:05;;;;;;;4.32;2.10;;;16.80;1.00;;;;;;10546893;28;20205;-80
2022/04/30 09:55:07;;;;;;;8.20;4.65;;;16.30;1.00;;;;;;10561229;28;20190;-79
2022/04/30 10:00:32;;;;;;;8.23;3.67;;;16.40;1.00;;;;;;10554362;28;20252;-80
2022/04/30 10:06:05;;;;;;;2.85;1.35;;;16.70;1.00;;;;;;10518603;28;20208;-81
2022/04/30 10:11:37;;;;;;;4.20;2.15;;;17.20;1.00;;;;;;10524185;28;20206;-80
2022/04/30 10:22:55;;;;;;;1.90;1.20;;;18.40;1.00;;;;;;10433056;28;20255;-78
2022/04/30 10:28:21;;;;;;;4.18;1.83;;;18.90;1.00;;;;;;10432453;28;20255;-81
2022/04/30 10:33:50;;;;;;;2.58;1.58;;;19.90;1.00;;;;;;10419162;28;20200;-79
2022/04/30 10:39:18;;;;;;;4.30;1.70;;;20.60;1.00;;;;;;10432544;28;20212;-80
2022/04/30 10:44:40;;;;;;;6.22;1.25;;;20.70;1.00;;;;;;10432578;28;20503;-81
2022/04/30 10:50:02;;;;;;;2.67;1.58;;;20.50;1.00;;;;;;10432574;28;20205;-79
2022/04/30 10:55:26;;;;;;;6.03;4.35;;;20.00;1.00;;;;;;10458260;28;20206;-80
2022/04/30 11:00:48;;;;;;;3.60;1.90;;;19.70;1.00;;;;;;10550784;28;20254;-80
2022/04/30 11:06:11;;;;;;;8.02;2.22;;;19.60;1.00;;;;;;10505952;28;20524;-80
2022/04/30 11:11:44;;;;;;;6.43;2.10;;;20.40;1.00;;;;;;10530357;28;20289;-82
2022/04/30 11:17:05;;;;;;;1.88;1.40;;;20.70;1.00;;;;;;10567290;28;20504;-79
2022/04/30 11:22:27;;;;;;;2.30;1.50;;;21.10;1.00;;;;;;10567763;28;20221;-79
2022/04/30 11:27:47;;;;;;;4.38;1.70;;;21.30;1.00;;;;;;10567845;28;20272;-82
2022/04/30 11:33:09;;;;;;;2.67;1.45;;;21.20;1.00;;;;;;10552407;28;20307;-81
2022/04/30 11:38:31;;;;;;;4.22;3.13;;;20.80;1.00;;;;;;10567819;28;20202;-81
2022/04/30 11:43:59;;;;;;;3.30;1.50;;;21.00;1.00;;;;;;10568262;28;20220;-82
2022/04/30 11:49:27;;;;;;;2.35;1.50;;;21.00;1.00;;;;;;10567663;28;20443;-82
2022/04/30 11:55:05;;;;;;;2.35;1.40;;;21.10;1.00;;;;;;10567190;28;20515;-80
2022/04/30 12:00:33;;;;;;;3.05;1.60;;;21.30;1.00;;;;;;10560469;28;20224;-82
2022/04/30 12:05:56;;;;;;;2.20;1.85;;;21.50;1.00;;;;;;10524802;28;20379;-82
2022/04/30 12:11:18;;;;;;;4.70;2.00;;;21.60;1.00;;;;;;10527040;28;20282;-79
2022/04/30 12:16:40;;;;;;;3.17;1.85;;;22.00;1.00;;;;;;10565447;28;20261;-80
2022/04/30 12:27:53;;;;;;;7.63;2.00;;;21.80;1.00;;;;;;10564949;28;20241;-80
2022/04/30 12:33:45;;;;;;;5.82;2.47;;;21.70;1.00;;;;;;10552945;28;20261;-81
2022/04/30 12:39:06;;;;;;;4.22;2.25;;;21.60;1.00;;;;;;10549830;28;20202;-80
2022/04/30 12:44:28;;;;;;;2.90;2.42;;;21.20;1.00;;;;;;10565899;28;20235;-81
2022/04/30 12:49:49;;;;;;;4.70;1.83;;;20.90;1.00;;;;;;10564948;28;20545;-79
2022/04/30 12:55:12;;;;;;;4.22;1.52;;;20.70;1.00;;;;;;10566012;28;20201;-81
2022/04/30 13:00:34;;;;;;;3.95;1.85;;;20.60;1.00;;;;;;10543184;28;20406;-80
2022/04/30 13:05:56;;;;;;;5.80;1.65;;;20.50;1.00;;;;;;10522153;28;20187;-79
2022/04/30 13:16:59;;;;;;;4.28;1.60;;;20.20;1.00;;;;;;10562182;28;20190;-81
2022/04/30 13:22:21;;;;;;;2.38;1.45;;;20.40;1.00;;;;;;10563108;28;20218;-81
2022/04/30 13:27:43;;;;;;;4.18;2.08;;;20.50;1.00;;;;;;10561751;28;20524;-78
2022/04/30 13:33:04;;;;;;;4.75;1.60;;;20.00;1.00;;;;;;10562688;28;20193;-79
2022/04/30 13:38:26;;;;;;;3.83;1.83;;;19.30;1.00;;;;;;10562786;28;20194;-79
2022/04/30 13:43:47;;;;;;;2.13;1.63;;;19.10;1.00;;;;;;10562404;28;20232;-79
2022/04/30 13:49:10;;;;;;;3.67;1.90;;;19.00;1.00;;;;;;10562172;28;20201;-79
2022/04/30 13:54:31;;;;;;;4.22;1.95;;;19.00;1.00;;;;;;10561214;28;20217;-81
2022/04/30 13:59:52;;;;;;;5.20;2.47;;;18.90;1.00;;;;;;10560913;28;20252;-80
2022/04/30 14:05:14;;;;;;;9.82;4.47;;;19.00;1.00;;;;;;10519930;28;20190;-80
2022/04/30 14:10:36;;;;;;;7.53;2.85;;;18.90;1.00;;;;;;10517368;28;20236;-80
2022/04/30 14:15:57;;;;;;;10.20;4.40;;;18.40;1.00;;;;;;10562254;28;20216;-81
2022/04/30 14:21:18;;;;;;;28.48;13.85;;;18.30;1.00;;;;;;10560444;28;20279;-79
2022/04/30 14:26:39;;;;;;;6.75;3.97;;;18.20;1.00;;;;;;10545875;28;20249;-80
2022/04/30 14:32:01;;;;;;;4.70;2.40;;;18.10;1.00;;;;;;10561141;28;20194;-80
2022/04/30 14:37:22;;;;;;;6.75;2.50;;;18.00;1.00;;;;;;10561342;28;20360;-79
2022/04/30 14:42:44;;;;;;;2.88;1.77;;;17.80;1.00;;;;;;10566182;28;20237;-80
2022/04/30 14:48:06;;;;;;;5.88;2.10;;;17.60;1.00;;;;;;10568161;28;20229;-79
2022/04/30 14:53:28;;;;;;;3.33;1.92;;;17.40;1.00;;;;;;10569259;28;20493;-80
2022/04/30 14:58:49;;;;;;;6.72;1.70;;;17.30;1.00;;;;;;10567853;28;20269;-79
2022/04/30 15:04:11;;;;;;;3.00;1.90;;;17.20;1.00;;;;;;10531007;28;20242;-79
2022/04/30 15:09:32;;;;;;;7.28;3.55;;;17.20;1.00;;;;;;10518746;28;20328;-79
2022/04/30 15:14:54;;;;;;;8.50;5.43;;;17.20;1.00;;;;;;10565463;28;20218;-80
2022/04/30 15:20:15;;;;;;;8.68;5.20;;;17.20;1.00;;;;;;10568446;28;20282;-78
2022/04/30 15:25:37;;;;;;;8.95;4.45;;;17.40;1.00;;;;;;10567126;28;20234;-80
2022/04/30 15:31:00;;;;;;;11.80;6.25;;;17.40;1.00;;;;;;10567489;28;20194;-80
2022/04/30 15:36:21;;;;;;;14.68;8.63;;;17.50;1.00;;;;;;10566719;28;20298;-80
2022/04/30 15:41:42;;;;;;;9.68;4.68;;;17.40;1.00;;;;;;10567346;28;20244;-80
2022/04/30 15:52:43;;;;;;;5.53;2.60;;;17.40;1.00;;;;;;10566893;28;20265;-80
2022/04/30 15:58:05;;;;;;;10.70;6.80;;;17.30;1.00;;;;;;10565715;28;20551;-79
2022/04/30 16:03:27;;;;;;;7.57;4.43;;;17.30;1.00;;;;;;10535167;28;20228;-79
2022/04/30 16:08:52;;;;;;;7.72;3.90;;;17.20;1.00;;;;;;10506244;28;20196;-79
2022/04/30 16:14:13;;;;;;;6.68;3.40;;;17.20;1.00;;;;;;10556957;28;20203;-79
2022/04/30 16:19:35;;;;;;;6.70;3.78;;;17.00;1.00;;;;;;10550456;28;20265;-78
2022/04/30 16:24:57;;;;;;;11.30;6.45;;;16.80;1.00;;;;;;10564464;28;20264;-79
2022/04/30 16:30:18;;;;;;;8.77;4.82;;;16.70;1.00;;;;;;10564224;28;20201;-81
2022/04/30 16:35:40;;;;;;;16.48;7.13;;;16.50;1.00;;;;;;10550080;28;20202;-79
2022/04/30 16:41:02;;;;;;;16.70;9.93;;;16.40;1.00;;;;;;10549751;28;20238;-80
2022/04/30 16:46:24;;;;;;;19.33;9.88;;;16.30;1.00;;;;;;10564945;28;20269;-81
2022/04/30 16:57:26;;;;;;;14.88;7.97;;;16.30;1.00;;;;;;10564106;28;20194;-79
2022/04/30 17:02:50;;;;;;;11.75;6.25;;;16.30;1.00;;;;;;10537780;28;20225;-80
2022/04/30 17:08:15;;;;;;;26.90;15.15;;;16.10;1.00;;;;;;10507331;28;20393;-79
2022/04/30 17:13:36;;;;;;;21.20;12.32;;;16.00;1.00;;;;;;10544534;28;20260;-80
2022/04/30 17:19:01;;;;;;;13.15;7.45;;;16.00;1.00;;;;;;10563739;28;20219;-78
2022/04/30 17:24:22;;;;;;;11.55;5.80;;;15.90;1.00;;;;;;10562263;28;20291;-80
2022/04/30 17:29:43;;;;;;;12.07;5.60;;;15.90;1.00;;;;;;10563071;28;20416;-79
2022/04/30 17:40:46;;;;;;;10.15;6.25;;;15.70;1.00;;;;;;10562266;28;20520;-78
2022/04/30 17:46:08;;;;;;;9.27;6.13;;;15.70;1.00;;;;;;10562576;28;20235;-81
2022/04/30 17:51:31;;;;;;;11.07;6.97;;;15.60;1.00;;;;;;10562181;28;20196;-78
2022/04/30 17:56:53;;;;;;;13.57;8.30;;;15.50;1.00;;;;;;10562243;28;20196;-79
2022/04/30 18:02:15;;;;;;;21.52;10.98;;;15.50;1.00;;;;;;10540413;28;20229;-79
2022/04/30 18:07:37;;;;;;;20.73;12.25;;;15.40;1.00;;;;;;10518896;28;20523;-80
2022/04/30 18:12:58;;;;;;;22.98;12.25;;;15.30;1.00;;;;;;10537038;28;20204;-78
2022/04/30 18:18:20;;;;;;;27.23;14.15;;;15.10;1.00;;;;;;10561622;28;20264;-79
2022/04/30 18:23:41;;;;;;;16.58;8.82;;;15.10;1.00;;;;;;10546075;28;20237;-78
2022/04/30 18:29:04;;;;;;;13.27;7.82;;;15.00;1.00;;;;;;10561572;28;20381;-79
2022/04/30 18:34:26;;;;;;;23.40;14.48;;;14.90;1.00;;;;;;10560331;28;20552;-81
2022/04/30 18:39:50;;;;;;;31.05;19.35;;;14.80;1.00;;;;;;10545800;28;20241;-81
2022/04/30 18:45:12;;;;;;;30.08;18.08;;;14.70;1.00;;;;;;10561169;28;20217;-78
2022/04/30 18:50:33;;;;;;;24.80;15.70;;;14.60;1.00;;;;;;10545990;28;20199;-77
2022/04/30 19:01:34;;;;;;;25.42;14.23;;;14.50;1.00;;;;;;10544254;28;20229;-80
2022/04/30 19:06:56;;;;;;;22.85;12.75;;;14.50;1.00;;;;;;10517785;28;20220;-79
2022/04/30 19:12:18;;;;;;;24.25;11.70;;;14.40;1.00;;;;;;10529327;28;20262;-81
2022/04/30 19:17:39;;;;;;;21.08;11.95;;;14.40;1.00;;;;;;10559421;28;20198;-79
2022/04/30 19:23:01;;;;;;;17.63;9.35;;;14.40;1.00;;;;;;10560101;28;20524;-81
2022/04/30 19:28:22;;;;;;;10.10;6.15;;;14.30;1.00;;;;;;10563011;28;20196;-79
2022/04/30 19:33:45;;;;;;;28.52;17.05;;;14.30;1.00;;;;;;10552336;28;20204;-79
2022/04/30 19:39:06;;;;;;;28.27;16.88;;;14.20;1.00;;;;;;10566443;28;20477;-78
2022/04/30 19:44:30;;;;;;;20.98;13.20;;;14.20;1.00;;;;;;10567353;28;20225;-79
2022/04/30 19:49:52;;;;;;;18.60;11.55;;;14.10;1.00;;;;;;10567329;28;20265;-80
2022/04/30 19:55:13;;;;;;;16.30;10.40;;;14.10;1.00;;;;;;10551492;28;20414;-81
2022/04/30 20:00:34;;;;;;;30.55;15.68;;;14.00;1.00;;;;;;10559619;28;20496;-79
2022/04/30 20:05:56;;;;;;;23.40;12.50;;;14.00;1.00;;;;;;10524528;28;20232;-80
2022/04/30 20:17:03;;;;;;;27.38;13.27;;;13.90;1.00;;;;;;10566290;28;20483;-80
2022/04/30 20:22:25;;;;;;;15.43;7.35;;;13.80;1.00;;;;;;10565701;28;20224;-79
2022/04/30 20:27:54;;;;;;;40.15;20.90;;;13.90;1.00;;;;;;10565361;28;20218;-80
2022/04/30 20:38:55;;;;;;;11.45;5.28;;;13.70;1.00;;;;;;10563550;28;20216;-78
2022/04/30 20:44:16;;;;;;;13.82;6.05;;;13.60;1.00;;;;;;10563984;28;20451;-79
2022/04/30 20:49:39;;;;;;;8.95;5.38;;;13.50;1.00;;;;;;10563554;28;20504;-81
2022/04/30 20:55:00;;;;;;;11.00;5.80;;;13.40;1.00;;;;;;10563650;28;20488;-78
2022/04/30 21:00:23;;;;;;;7.55;4.93;;;13.40;1.00;;;;;;10558361;28;20226;-78
2022/04/30 21:05:45;;;;;;;8.57;4.55;;;13.30;1.00;;;;;;10522001;28;20360;-79
2022/04/30 21:11:06;;;;;;;8.68;4.13;;;13.10;1.00;;;;;;10522867;28;20198;-81
2022/04/30 21:16:29;;;;;;;5.90;3.80;;;13.00;1.00;;;;;;10562972;28;20200;-81
2022/04/30 21:21:50;;;;;;;9.45;4.50;;;12.90;1.00;;;;;;10562745;28;20591;-80
2022/04/30 21:27:13;;;;;;;7.18;4.40;;;12.80;1.00;;;;;;10562261;28;20236;-77
2022/04/30 21:32:34;;;;;;;10.02;4.38;;;12.80;1.00;;;;;;10563059;28;20557;-79
2022/04/30 21:37:56;;;;;;;8.63;3.95;;;12.80;1.00;;;;;;10562152;28;20201;-81
2022/04/30 21:43:18;;;;;;;8.32;4.35;;;12.80;1.00;;;;;;10562676;28;20294;-80
2022/04/30 21:48:40;;;;;;;6.18;4.22;;;12.70;1.00;;;;;;10562323;28;20182;-79
2022/04/30 21:54:02;;;;;;;8.40;5.13;;;12.70;1.00;;;;;;10561669;28;20196;-79
2022/04/30 22:05:04;;;;;;;6.90;4.82;;;12.60;29.70;;;;;;10493927;28;20234;-78
2022/04/30 22:10:26;;;;;;;6.97;4.55;;;12.60;63.30;;;;;;10496874;28;20511;-80
2022/04/30 22:15:47;;;;;;;11.20;5.43;;;12.60;85.40;;;;;;10561743;28;20494;-78
2022/04/30 22:21:09;;;;;;;8.82;5.18;;;12.60;99.90;;;;;;10560438;28;20216;-80
2022/04/30 22:26:31;;;;;;;7.30;4.82;;;12.50;99.90;;;;;;10560689;28;20259;-78
2022/04/30 22:31:53;;;;;;;8.00;4.63;;;12.40;99.90;;;;;;10561210;28;20208;-79
2022/04/30 22:37:14;;;;;;;10.90;5.07;;;12.30;99.90;;;;;;10560566;28;20530;-78
2022/04/30 22:42:49;;;;;;;8.02;4.80;;;12.30;99.90;;;;;;10560217;28;20221;-78
2022/04/30 22:48:10;;;;;;;9.27;5.35;;;12.30;99.90;;;;;;10561071;28;20242;-80
2022/04/30 22:53:32;;;;;;;10.60;5.75;;;12.10;99.90;;;;;;10561212;28;20195;-80
2022/04/30 22:58:53;;;;;;;8.23;5.13;;;12.00;99.90;;;;;;10560855;28;20366;-79
2022/04/30 23:04:14;;;;;;;15.23;5.78;;;11.90;99.90;;;;;;10528472;28;20447;-79
2022/04/30 23:09:36;;;;;;;11.52;5.75;;;12.00;1.00;;;;;;10520162;28;20235;-80
2022/04/30 23:14:58;;;;;;;9.80;5.60;;;12.00;1.00;;;;;;10566354;28;20488;-79
2022/04/30 23:20:19;;;;;;;6.97;4.00;;;11.90;1.00;;;;;;10567069;28;20370;-78
2022/04/30 23:25:40;;;;;;;8.30;4.78;;;11.80;1.00;;;;;;10566787;28;20401;-80
2022/04/30 23:31:02;;;;;;;6.22;3.92;;;11.80;1.00;;;;;;10567757;28;20198;-79
2022/04/30 23:36:25;;;;;;;8.30;3.90;;;11.70;1.00;;;;;;10567008;28;20222;-78
2022/04/30 23:41:46;;;;;;;7.50;4.45;;;11.70;1.00;;;;;;10567251;28;20225;-80
2022/04/30 23:47:09;;;;;;;9.88;4.57;;;11.60;1.00;;;;;;10566223;28;20196;-80
2022/04/30 23:52:31;;;;;;;8.85;4.25;;;11.50;1.00;;;;;;10567295;28;20381;-80
2022/04/30 23:57:52;;;;;;;7.65;4.65;;;11.50;20.00;;;;;;10565698;28;20216;-78
